sensor_id;sensor_type;location;lat;lon;timestamp;P1;durP1;ratioP1;P2;durP2;ratioP2
34902;SDS011;21114;44.840;0.214;2023-09-30T00:01:21;14.80;;;7.28;;
34902;SDS011;21114;44.840;0.214;2023-09-30T00:03:47;20.15;;;9.05;;
34902;SDS011;21114;44.840;0.214;2023-09-30T00:06:13;13.48;;;6.80;;
34902;SDS011;21114;44.840;0.214;2023-09-30T00:08:40;18.10;;;8.25;;
34902;SDS011;21114;44.840;0.214;2023-09-30T00:11:07;17.30;;;8.70;;
34902;SDS011;21114;44.840;0.214;2023-09-30T00:13:33;13.07;;;6.63;;
34902;SDS011;21114;44.840;0.214;2023-09-30T00:15:59;15.65;;;6.07;;
34902;SDS011;21114;44.840;0.214;2023-09-30T00:18:25;22.48;;;7.45;;
34902;SDS011;21114;44.840;0.214;2023-09-30T00:20:52;28.50;;;8.82;;
34902;SDS011;21114;44.840;0.214;2023-09-30T00:23:18;19.65;;;8.52;;
34902;SDS011;21114;44.840;0.214;2023-09-30T00:25:46;13.77;;;6.50;;
34902;SDS011;21114;44.840;0.214;2023-09-30T00:28:15;12.02;;;5.57;;
34902;SDS011;21114;44.840;0.214;2023-09-30T00:30:41;13.88;;;5.75;;
34902;SDS011;21114;44.840;0.214;2023-09-30T00:33:07;14.38;;;6.82;;
34902;SDS011;21114;44.840;0.214;2023-09-30T00:35:33;12.75;;;6.07;;
34902;SDS011;21114;44.840;0.214;2023-09-30T00:37:59;14.75;;;7.47;;
34902;SDS011;21114;44.840;0.214;2023-09-30T00:40:25;12.50;;;6.43;;
34902;SDS011;21114;44.840;0.214;2023-09-30T00:42:51;15.05;;;6.82;;
34902;SDS011;21114;44.840;0.214;2023-09-30T00:45:17;14.43;;;6.30;;
34902;SDS011;21114;44.840;0.214;2023-09-30T00:47:43;17.70;;;7.15;;
34902;SDS011;21114;44.840;0.214;2023-09-30T00:50:09;12.77;;;6.63;;
34902;SDS011;21114;44.840;0.214;2023-09-30T00:52:37;13.88;;;7.32;;
34902;SDS011;21114;44.840;0.214;2023-09-30T00:55:04;19.00;;;7.95;;
34902;SDS011;21114;44.840;0.214;2023-09-30T00:57:30;20.63;;;7.55;;
34902;SDS011;21114;44.840;0.214;2023-09-30T00:59:57;12.07;;;6.20;;
34902;SDS011;21114;44.840;0.214;2023-09-30T01:02:23;17.17;;;7.78;;
34902;SDS011;21114;44.840;0.214;2023-09-30T01:04:50;14.13;;;6.93;;
34902;SDS011;21114;44.840;0.214;2023-09-30T01:07:16;12.98;;;7.07;;
34902;SDS011;21114;44.840;0.214;2023-09-30T01:09:42;14.23;;;7.75;;
34902;SDS011;21114;44.840;0.214;2023-09-30T01:12:08;17.90;;;7.65;;
34902;SDS011;21114;44.840;0.214;2023-09-30T01:14:35;17.02;;;8.23;;
34902;SDS011;21114;44.840;0.214;2023-09-30T01:17:03;16.55;;;7.15;;
34902;SDS011;21114;44.840;0.214;2023-09-30T01:19:33;15.45;;;6.53;;
34902;SDS011;21114;44.840;0.214;2023-09-30T01:21:59;17.98;;;7.10;;
34902;SDS011;21114;44.840;0.214;2023-09-30T01:24:28;15.25;;;6.85;;
34902;SDS011;21114;44.840;0.214;2023-09-30T01:26:54;11.88;;;6.15;;
34902;SDS011;21114;44.840;0.214;2023-09-30T01:29:20;14.35;;;7.18;;
34902;SDS011;21114;44.840;0.214;2023-09-30T01:31:47;12.85;;;6.65;;
34902;SDS011;21114;44.840;0.214;2023-09-30T01:34:15;18.38;;;7.93;;
34902;SDS011;21114;44.840;0.214;2023-09-30T01:36:41;12.75;;;5.40;;
34902;SDS011;21114;44.840;0.214;2023-09-30T01:39:08;14.52;;;6.22;;
34902;SDS011;21114;44.840;0.214;2023-09-30T01:41:35;11.95;;;5.75;;
34902;SDS011;21114;44.840;0.214;2023-09-30T01:44:01;12.73;;;6.85;;
34902;SDS011;21114;44.840;0.214;2023-09-30T01:46:28;13.48;;;6.57;;
34902;SDS011;21114;44.840;0.214;2023-09-30T01:48:54;16.88;;;6.55;;
34902;SDS011;21114;44.840;0.214;2023-09-30T01:51:20;17.17;;;7.13;;
34902;SDS011;21114;44.840;0.214;2023-09-30T01:53:46;13.15;;;6.47;;
34902;SDS011;21114;44.840;0.214;2023-09-30T01:56:13;15.48;;;7.13;;
34902;SDS011;21114;44.840;0.214;2023-09-30T01:58:39;24.33;;;9.85;;
34902;SDS011;21114;44.840;0.214;2023-09-30T02:01:05;13.90;;;6.38;;
34902;SDS011;21114;44.840;0.214;2023-09-30T02:03:31;15.60;;;6.68;;
34902;SDS011;21114;44.840;0.214;2023-09-30T02:05:58;15.20;;;7.93;;
34902;SDS011;21114;44.840;0.214;2023-09-30T02:08:24;13.75;;;7.25;;
34902;SDS011;21114;44.840;0.214;2023-09-30T02:10:50;17.60;;;7.15;;
34902;SDS011;21114;44.840;0.214;2023-09-30T02:13:17;12.15;;;6.78;;
34902;SDS011;21114;44.840;0.214;2023-09-30T02:15:43;17.27;;;6.63;;
34902;SDS011;21114;44.840;0.214;2023-09-30T02:18:09;12.65;;;6.95;;
34902;SDS011;21114;44.840;0.214;2023-09-30T02:20:36;16.33;;;7.00;;
34902;SDS011;21114;44.840;0.214;2023-09-30T02:23:05;12.40;;;6.38;;
34902;SDS011;21114;44.840;0.214;2023-09-30T02:25:31;15.23;;;7.43;;
34902;SDS011;21114;44.840;0.214;2023-09-30T02:27:58;15.45;;;7.97;;
34902;SDS011;21114;44.840;0.214;2023-09-30T02:30:25;16.08;;;7.78;;
34902;SDS011;21114;44.840;0.214;2023-09-30T02:32:52;14.23;;;6.75;;
34902;SDS011;21114;44.840;0.214;2023-09-30T02:35:18;12.23;;;7.03;;
34902;SDS011;21114;44.840;0.214;2023-09-30T02:37:45;16.00;;;7.18;;
34902;SDS011;21114;44.840;0.214;2023-09-30T02:40:11;16.85;;;5.72;;
34902;SDS011;21114;44.840;0.214;2023-09-30T02:42:40;15.52;;;6.95;;
34902;SDS011;21114;44.840;0.214;2023-09-30T02:45:07;14.13;;;7.55;;
34902;SDS011;21114;44.840;0.214;2023-09-30T02:47:37;13.60;;;7.35;;
34902;SDS011;21114;44.840;0.214;2023-09-30T02:50:04;14.43;;;6.20;;
34902;SDS011;21114;44.840;0.214;2023-09-30T02:52:31;15.10;;;6.22;;
34902;SDS011;21114;44.840;0.214;2023-09-30T02:54:58;17.33;;;6.75;;
34902;SDS011;21114;44.840;0.214;2023-09-30T02:57:24;12.23;;;6.00;;
34902;SDS011;21114;44.840;0.214;2023-09-30T02:59:50;12.43;;;6.63;;
34902;SDS011;21114;44.840;0.214;2023-09-30T03:02:19;14.80;;;7.53;;
34902;SDS011;21114;44.840;0.214;2023-09-30T03:04:48;18.60;;;6.63;;
34902;SDS011;21114;44.840;0.214;2023-09-30T03:07:16;9.07;;;5.68;;
34902;SDS011;21114;44.840;0.214;2023-09-30T03:09:43;13.75;;;6.63;;
34902;SDS011;21114;44.840;0.214;2023-09-30T03:12:09;13.73;;;7.00;;
34902;SDS011;21114;44.840;0.214;2023-09-30T03:14:35;14.85;;;6.75;;
34902;SDS011;21114;44.840;0.214;2023-09-30T03:17:01;12.80;;;5.85;;
34902;SDS011;21114;44.840;0.214;2023-09-30T03:19:28;14.38;;;6.90;;
34902;SDS011;21114;44.840;0.214;2023-09-30T03:21:54;16.02;;;6.45;;
34902;SDS011;21114;44.840;0.214;2023-09-30T03:24:21;11.68;;;7.05;;
34902;SDS011;21114;44.840;0.214;2023-09-30T03:26:47;19.65;;;8.10;;
34902;SDS011;21114;44.840;0.214;2023-09-30T03:29:14;15.38;;;6.18;;
34902;SDS011;21114;44.840;0.214;2023-09-30T03:31:40;19.70;;;8.10;;
34902;SDS011;21114;44.840;0.214;2023-09-30T03:34:06;14.60;;;6.38;;
34902;SDS011;21114;44.840;0.214;2023-09-30T03:36:33;12.63;;;5.82;;
34902;SDS011;21114;44.840;0.214;2023-09-30T03:39:00;15.05;;;6.07;;
34902;SDS011;21114;44.840;0.214;2023-09-30T03:41:32;15.55;;;8.32;;
34902;SDS011;21114;44.840;0.214;2023-09-30T03:44:00;17.70;;;7.88;;
34902;SDS011;21114;44.840;0.214;2023-09-30T03:46:26;12.10;;;5.10;;
34902;SDS011;21114;44.840;0.214;2023-09-30T03:48:52;12.82;;;8.90;;
34902;SDS011;21114;44.840;0.214;2023-09-30T03:51:20;12.82;;;6.97;;
34902;SDS011;21114;44.840;0.214;2023-09-30T03:53:50;13.80;;;7.40;;
34902;SDS011;21114;44.840;0.214;2023-09-30T03:56:17;18.70;;;7.13;;
34902;SDS011;21114;44.840;0.214;2023-09-30T03:58:43;17.25;;;8.80;;
34902;SDS011;21114;44.840;0.214;2023-09-30T04:01:10;16.38;;;6.72;;
34902;SDS011;21114;44.840;0.214;2023-09-30T04:03:36;12.90;;;7.00;;
34902;SDS011;21114;44.840;0.214;2023-09-30T04:06:04;20.02;;;9.70;;
34902;SDS011;21114;44.840;0.214;2023-09-30T04:08:30;17.88;;;7.53;;
34902;SDS011;21114;44.840;0.214;2023-09-30T04:10:58;17.55;;;7.95;;
34902;SDS011;21114;44.840;0.214;2023-09-30T04:13:25;18.77;;;8.00;;
34902;SDS011;21114;44.840;0.214;2023-09-30T04:15:51;18.58;;;8.48;;
34902;SDS011;21114;44.840;0.214;2023-09-30T04:18:17;32.88;;;15.55;;
34902;SDS011;21114;44.840;0.214;2023-09-30T04:20:45;20.23;;;8.98;;
34902;SDS011;21114;44.840;0.214;2023-09-30T04:23:11;17.05;;;8.82;;
34902;SDS011;21114;44.840;0.214;2023-09-30T04:25:38;15.38;;;8.00;;
34902;SDS011;21114;44.840;0.214;2023-09-30T04:28:05;16.20;;;8.27;;
34902;SDS011;21114;44.840;0.214;2023-09-30T04:30:32;19.60;;;8.15;;
34902;SDS011;21114;44.840;0.214;2023-09-30T04:32:58;16.92;;;7.85;;
34902;SDS011;21114;44.840;0.214;2023-09-30T04:35:24;14.48;;;7.50;;
34902;SDS011;21114;44.840;0.214;2023-09-30T04:37:51;25.15;;;8.43;;
34902;SDS011;21114;44.840;0.214;2023-09-30T04:40:17;16.25;;;8.48;;
34902;SDS011;21114;44.840;0.214;2023-09-30T04:42:47;14.77;;;6.15;;
34902;SDS011;21114;44.840;0.214;2023-09-30T04:45:13;14.40;;;5.93;;
34902;SDS011;21114;44.840;0.214;2023-09-30T04:47:44;14.18;;;5.63;;
34902;SDS011;21114;44.840;0.214;2023-09-30T04:50:11;14.10;;;6.03;;
34902;SDS011;21114;44.840;0.214;2023-09-30T04:52:41;11.60;;;6.28;;
34902;SDS011;21114;44.840;0.214;2023-09-30T04:55:07;15.43;;;7.95;;
34902;SDS011;21114;44.840;0.214;2023-09-30T04:57:33;17.58;;;6.85;;
34902;SDS011;21114;44.840;0.214;2023-09-30T05:00:00;11.75;;;8.07;;
34902;SDS011;21114;44.840;0.214;2023-09-30T05:02:26;14.25;;;7.45;;
34902;SDS011;21114;44.840;0.214;2023-09-30T05:04:53;19.92;;;8.75;;
34902;SDS011;21114;44.840;0.214;2023-09-30T05:07:20;15.27;;;7.32;;
34902;SDS011;21114;44.840;0.214;2023-09-30T05:09:49;13.48;;;7.10;;
34902;SDS011;21114;44.840;0.214;2023-09-30T05:12:15;15.55;;;7.93;;
34902;SDS011;21114;44.840;0.214;2023-09-30T05:14:41;13.40;;;9.10;;
34902;SDS011;21114;44.840;0.214;2023-09-30T05:17:08;18.08;;;8.23;;
34902;SDS011;21114;44.840;0.214;2023-09-30T05:19:34;11.23;;;7.13;;
34902;SDS011;21114;44.840;0.214;2023-09-30T05:22:02;13.55;;;6.22;;
34902;SDS011;21114;44.840;0.214;2023-09-30T05:24:28;10.77;;;5.97;;
34902;SDS011;21114;44.840;0.214;2023-09-30T05:26:55;11.48;;;7.22;;
34902;SDS011;21114;44.840;0.214;2023-09-30T05:29:21;15.25;;;7.65;;
34902;SDS011;21114;44.840;0.214;2023-09-30T05:31:47;16.25;;;8.55;;
34902;SDS011;21114;44.840;0.214;2023-09-30T05:34:13;14.70;;;7.88;;
34902;SDS011;21114;44.840;0.214;2023-09-30T05:36:39;15.75;;;7.93;;
34902;SDS011;21114;44.840;0.214;2023-09-30T05:39:05;13.65;;;7.60;;
34902;SDS011;21114;44.840;0.214;2023-09-30T05:41:35;15.90;;;10.07;;
34902;SDS011;21114;44.840;0.214;2023-09-30T05:44:02;13.27;;;6.18;;
34902;SDS011;21114;44.840;0.214;2023-09-30T05:46:30;14.15;;;6.25;;
34902;SDS011;21114;44.840;0.214;2023-09-30T05:48:56;13.02;;;6.70;;
34902;SDS011;21114;44.840;0.214;2023-09-30T05:51:22;9.18;;;5.03;;
34902;SDS011;21114;44.840;0.214;2023-09-30T05:53:48;11.90;;;6.50;;
34902;SDS011;21114;44.840;0.214;2023-09-30T05:56:15;11.27;;;5.72;;
34902;SDS011;21114;44.840;0.214;2023-09-30T05:58:41;17.92;;;10.15;;
34902;SDS011;21114;44.840;0.214;2023-09-30T06:01:08;9.93;;;6.78;;
34902;SDS011;21114;44.840;0.214;2023-09-30T06:03:43;23.88;;;18.77;;
34902;SDS011;21114;44.840;0.214;2023-09-30T06:06:12;14.82;;;10.73;;
34902;SDS011;21114;44.840;0.214;2023-09-30T06:08:38;9.88;;;5.93;;
34902;SDS011;21114;44.840;0.214;2023-09-30T06:11:05;5.30;;;3.38;;
34902;SDS011;21114;44.840;0.214;2023-09-30T06:13:34;6.35;;;4.45;;
34902;SDS011;21114;44.840;0.214;2023-09-30T06:16:01;6.60;;;5.45;;
34902;SDS011;21114;44.840;0.214;2023-09-30T06:18:27;5.35;;;4.30;;
34902;SDS011;21114;44.840;0.214;2023-09-30T06:20:53;6.03;;;4.22;;
34902;SDS011;21114;44.840;0.214;2023-09-30T06:23:19;9.55;;;4.95;;
34902;SDS011;21114;44.840;0.214;2023-09-30T06:25:45;4.90;;;3.70;;
34902;SDS011;21114;44.840;0.214;2023-09-30T06:28:11;8.98;;;3.97;;
34902;SDS011;21114;44.840;0.214;2023-09-30T06:30:39;5.30;;;3.63;;
34902;SDS011;21114;44.840;0.214;2023-09-30T06:33:07;5.00;;;2.78;;
34902;SDS011;21114;44.840;0.214;2023-09-30T06:35:36;4.93;;;3.85;;
34902;SDS011;21114;44.840;0.214;2023-09-30T06:38:14;5.20;;;3.15;;
34902;SDS011;21114;44.840;0.214;2023-09-30T06:40:40;3.88;;;3.00;;
34902;SDS011;21114;44.840;0.214;2023-09-30T06:43:07;5.82;;;3.63;;
34902;SDS011;21114;44.840;0.214;2023-09-30T06:45:34;6.90;;;4.57;;
34902;SDS011;21114;44.840;0.214;2023-09-30T06:48:04;7.97;;;5.63;;
34902;SDS011;21114;44.840;0.214;2023-09-30T06:50:30;11.23;;;5.90;;
34902;SDS011;21114;44.840;0.214;2023-09-30T06:52:56;13.65;;;7.28;;
34902;SDS011;21114;44.840;0.214;2023-09-30T06:55:24;10.85;;;6.75;;
34902;SDS011;21114;44.840;0.214;2023-09-30T06:57:52;11.57;;;5.75;;
34902;SDS011;21114;44.840;0.214;2023-09-30T07:00:18;9.40;;;5.00;;
34902;SDS011;21114;44.840;0.214;2023-09-30T07:02:44;10.88;;;5.72;;
34902;SDS011;21114;44.840;0.214;2023-09-30T07:05:11;10.85;;;7.55;;
34902;SDS011;21114;44.840;0.214;2023-09-30T07:07:38;11.48;;;7.07;;
34902;SDS011;21114;44.840;0.214;2023-09-30T07:10:05;8.77;;;5.40;;
34902;SDS011;21114;44.840;0.214;2023-09-30T07:12:31;9.30;;;5.75;;
34902;SDS011;21114;44.840;0.214;2023-09-30T07:15:00;11.23;;;5.45;;
34902;SDS011;21114;44.840;0.214;2023-09-30T07:17:26;12.50;;;5.65;;
34902;SDS011;21114;44.840;0.214;2023-09-30T07:19:53;11.10;;;5.55;;
34902;SDS011;21114;44.840;0.214;2023-09-30T07:22:19;7.88;;;4.60;;
34902;SDS011;21114;44.840;0.214;2023-09-30T07:24:45;12.48;;;7.25;;
34902;SDS011;21114;44.840;0.214;2023-09-30T07:27:11;14.80;;;7.82;;
34902;SDS011;21114;44.840;0.214;2023-09-30T07:29:37;11.32;;;6.63;;
34902;SDS011;21114;44.840;0.214;2023-09-30T07:32:03;9.88;;;6.10;;
34902;SDS011;21114;44.840;0.214;2023-09-30T07:34:29;12.50;;;7.13;;
34902;SDS011;21114;44.840;0.214;2023-09-30T07:36:55;9.85;;;6.10;;
34902;SDS011;21114;44.840;0.214;2023-09-30T07:39:21;8.80;;;5.50;;
34902;SDS011;21114;44.840;0.214;2023-09-30T07:41:47;12.38;;;5.80;;
34902;SDS011;21114;44.840;0.214;2023-09-30T07:44:13;9.13;;;5.93;;
34902;SDS011;21114;44.840;0.214;2023-09-30T07:46:40;9.07;;;6.50;;
34902;SDS011;21114;44.840;0.214;2023-09-30T07:49:08;11.40;;;6.35;;
34902;SDS011;21114;44.840;0.214;2023-09-30T07:51:34;11.32;;;4.78;;
34902;SDS011;21114;44.840;0.214;2023-09-30T07:54:00;10.02;;;7.43;;
34902;SDS011;21114;44.840;0.214;2023-09-30T07:56:28;10.85;;;6.88;;
34902;SDS011;21114;44.840;0.214;2023-09-30T07:58:54;11.32;;;4.95;;
34902;SDS011;21114;44.840;0.214;2023-09-30T08:01:20;10.85;;;6.43;;
34902;SDS011;21114;44.840;0.214;2023-09-30T08:03:46;14.95;;;7.22;;
34902;SDS011;21114;44.840;0.214;2023-09-30T08:06:12;10.98;;;5.68;;
34902;SDS011;21114;44.840;0.214;2023-09-30T08:08:38;13.13;;;7.65;;
34902;SDS011;21114;44.840;0.214;2023-09-30T08:11:05;9.07;;;5.38;;
34902;SDS011;21114;44.840;0.214;2023-09-30T08:13:31;12.65;;;6.85;;
34902;SDS011;21114;44.840;0.214;2023-09-30T08:15:58;11.15;;;5.78;;
34902;SDS011;21114;44.840;0.214;2023-09-30T08:18:24;8.82;;;5.57;;
34902;SDS011;21114;44.840;0.214;2023-09-30T08:20:50;12.15;;;6.95;;
34902;SDS011;21114;44.840;0.214;2023-09-30T08:23:16;13.05;;;6.85;;
34902;SDS011;21114;44.840;0.214;2023-09-30T08:25:42;13.27;;;6.03;;
34902;SDS011;21114;44.840;0.214;2023-09-30T08:28:09;13.85;;;7.53;;
34902;SDS011;21114;44.840;0.214;2023-09-30T08:30:36;11.38;;;5.75;;
34902;SDS011;21114;44.840;0.214;2023-09-30T08:33:02;12.48;;;6.03;;
34902;SDS011;21114;44.840;0.214;2023-09-30T08:35:29;9.50;;;6.95;;
34902;SDS011;21114;44.840;0.214;2023-09-30T08:37:56;12.77;;;6.13;;
34902;SDS011;21114;44.840;0.214;2023-09-30T08:40:23;11.38;;;4.45;;
34902;SDS011;21114;44.840;0.214;2023-09-30T08:42:51;10.25;;;5.70;;
34902;SDS011;21114;44.840;0.214;2023-09-30T08:45:18;10.65;;;5.95;;
34902;SDS011;21114;44.840;0.214;2023-09-30T08:47:44;15.45;;;8.55;;
34902;SDS011;21114;44.840;0.214;2023-09-30T08:50:15;12.80;;;7.00;;
34902;SDS011;21114;44.840;0.214;2023-09-30T08:52:41;13.35;;;6.88;;
34902;SDS011;21114;44.840;0.214;2023-09-30T08:55:09;14.27;;;6.25;;
34902;SDS011;21114;44.840;0.214;2023-09-30T08:57:39;13.82;;;7.53;;
34902;SDS011;21114;44.840;0.214;2023-09-30T09:00:10;12.68;;;5.85;;
34902;SDS011;21114;44.840;0.214;2023-09-30T09:02:36;14.65;;;5.72;;
34902;SDS011;21114;44.840;0.214;2023-09-30T09:05:02;12.85;;;6.40;;
34902;SDS011;21114;44.840;0.214;2023-09-30T09:07:28;14.63;;;6.50;;
34902;SDS011;21114;44.840;0.214;2023-09-30T09:10:08;9.75;;;5.00;;
34902;SDS011;21114;44.840;0.214;2023-09-30T09:12:36;16.10;;;6.25;;
34902;SDS011;21114;44.840;0.214;2023-09-30T09:15:04;13.30;;;5.45;;
34902;SDS011;21114;44.840;0.214;2023-09-30T09:17:41;12.00;;;5.22;;
34902;SDS011;21114;44.840;0.214;2023-09-30T09:20:08;12.35;;;6.47;;
34902;SDS011;21114;44.840;0.214;2023-09-30T09:22:42;14.75;;;6.35;;
34902;SDS011;21114;44.840;0.214;2023-09-30T09:25:08;12.23;;;5.78;;
34902;SDS011;21114;44.840;0.214;2023-09-30T09:27:34;13.48;;;6.13;;
34902;SDS011;21114;44.840;0.214;2023-09-30T09:30:25;13.23;;;6.03;;
34902;SDS011;21114;44.840;0.214;2023-09-30T09:33:00;12.70;;;6.72;;
34902;SDS011;21114;44.840;0.214;2023-09-30T09:35:26;15.57;;;7.25;;
34902;SDS011;21114;44.840;0.214;2023-09-30T09:37:58;12.80;;;5.82;;
34902;SDS011;21114;44.840;0.214;2023-09-30T09:40:28;14.88;;;6.43;;
34902;SDS011;21114;44.840;0.214;2023-09-30T09:42:58;14.90;;;6.32;;
34902;SDS011;21114;44.840;0.214;2023-09-30T09:45:25;14.98;;;7.60;;
34902;SDS011;21114;44.840;0.214;2023-09-30T09:47:55;10.45;;;5.97;;
34902;SDS011;21114;44.840;0.214;2023-09-30T09:50:22;15.38;;;7.80;;
34902;SDS011;21114;44.840;0.214;2023-09-30T09:52:48;10.60;;;5.53;;
34902;SDS011;21114;44.840;0.214;2023-09-30T09:55:23;9.77;;;5.05;;
34902;SDS011;21114;44.840;0.214;2023-09-30T09:57:50;13.30;;;8.07;;
34902;SDS011;21114;44.840;0.214;2023-09-30T10:00:17;12.00;;;6.68;;
34902;SDS011;21114;44.840;0.214;2023-09-30T10:02:44;11.45;;;6.55;;
34902;SDS011;21114;44.840;0.214;2023-09-30T10:05:11;9.07;;;5.18;;
34902;SDS011;21114;44.840;0.214;2023-09-30T10:07:38;12.30;;;5.85;;
34902;SDS011;21114;44.840;0.214;2023-09-30T10:10:07;10.00;;;6.00;;
34902;SDS011;21114;44.840;0.214;2023-09-30T10:12:37;10.90;;;5.68;;
34902;SDS011;21114;44.840;0.214;2023-09-30T10:15:34;8.60;;;5.18;;
34902;SDS011;21114;44.840;0.214;2023-09-30T10:18:05;10.57;;;4.95;;
34902;SDS011;21114;44.840;0.214;2023-09-30T10:20:38;7.70;;;4.85;;
34902;SDS011;21114;44.840;0.214;2023-09-30T10:23:25;17.55;;;7.45;;
34902;SDS011;21114;44.840;0.214;2023-09-30T10:36:33;8.98;;;4.25;;
34902;SDS011;21114;44.840;0.214;2023-09-30T10:38:59;9.80;;;4.45;;
34902;SDS011;21114;44.840;0.214;2023-09-30T10:46:50;7.03;;;4.13;;
34902;SDS011;21114;44.840;0.214;2023-09-30T10:51:50;9.27;;;3.95;;
34902;SDS011;21114;44.840;0.214;2023-09-30T10:54:18;6.80;;;4.65;;
34902;SDS011;21114;44.840;0.214;2023-09-30T10:56:48;7.60;;;5.07;;
34902;SDS011;21114;44.840;0.214;2023-09-30T10:59:21;3.47;;;2.17;;
34902;SDS011;21114;44.840;0.214;2023-09-30T11:01:48;6.47;;;3.75;;
34902;SDS011;21114;44.840;0.214;2023-09-30T11:04:15;12.18;;;3.85;;
34902;SDS011;21114;44.840;0.214;2023-09-30T11:06:44;2.97;;;1.55;;
34902;SDS011;21114;44.840;0.214;2023-09-30T11:09:20;3.10;;;1.90;;
34902;SDS011;21114;44.840;0.214;2023-09-30T11:11:47;4.65;;;1.63;;
34902;SDS011;21114;44.840;0.214;2023-09-30T11:16:43;3.70;;;1.88;;
34902;SDS011;21114;44.840;0.214;2023-09-30T11:19:12;4.70;;;2.38;;
34902;SDS011;21114;44.840;0.214;2023-09-30T11:21:40;10.27;;;2.63;;
34902;SDS011;21114;44.840;0.214;2023-09-30T11:24:06;4.68;;;2.53;;
34902;SDS011;21114;44.840;0.214;2023-09-30T11:26:33;3.17;;;1.88;;
34902;SDS011;21114;44.840;0.214;2023-09-30T11:29:06;3.80;;;1.48;;
34902;SDS011;21114;44.840;0.214;2023-09-30T11:31:33;3.00;;;1.70;;
34902;SDS011;21114;44.840;0.214;2023-09-30T11:33:59;3.58;;;1.92;;
34902;SDS011;21114;44.840;0.214;2023-09-30T11:36:32;5.85;;;2.45;;
34902;SDS011;21114;44.840;0.214;2023-09-30T11:38:58;3.45;;;1.52;;
34902;SDS011;21114;44.840;0.214;2023-09-30T11:41:32;4.22;;;1.80;;
34902;SDS011;21114;44.840;0.214;2023-09-30T11:43:59;3.85;;;2.10;;
34902;SDS011;21114;44.840;0.214;2023-09-30T11:46:25;2.38;;;1.73;;
34902;SDS011;21114;44.840;0.214;2023-09-30T11:49:02;23.30;;;9.05;;
34902;SDS011;21114;44.840;0.214;2023-09-30T11:51:42;8.18;;;2.05;;
34902;SDS011;21114;44.840;0.214;2023-09-30T11:54:11;3.30;;;2.33;;
34902;SDS011;21114;44.840;0.214;2023-09-30T11:56:37;4.82;;;3.22;;
34902;SDS011;21114;44.840;0.214;2023-09-30T11:59:03;4.18;;;1.90;;
34902;SDS011;21114;44.840;0.214;2023-09-30T12:01:29;4.90;;;2.60;;
34902;SDS011;21114;44.840;0.214;2023-09-30T12:03:58;3.30;;;1.73;;
34902;SDS011;21114;44.840;0.214;2023-09-30T12:06:24;4.18;;;1.70;;
34902;SDS011;21114;44.840;0.214;2023-09-30T12:08:51;5.47;;;1.98;;
34902;SDS011;21114;44.840;0.214;2023-09-30T12:11:18;3.47;;;2.05;;
34902;SDS011;21114;44.840;0.214;2023-09-30T12:13:44;3.72;;;1.80;;
34902;SDS011;21114;44.840;0.214;2023-09-30T12:16:13;2.22;;;1.77;;
34902;SDS011;21114;44.840;0.214;2023-09-30T12:18:39;10.32;;;3.78;;
34902;SDS011;21114;44.840;0.214;2023-09-30T12:21:06;4.90;;;2.22;;
34902;SDS011;21114;44.840;0.214;2023-09-30T12:23:33;2.33;;;1.58;;
34902;SDS011;21114;44.840;0.214;2023-09-30T12:26:00;3.75;;;1.98;;
34902;SDS011;21114;44.840;0.214;2023-09-30T12:28:30;3.08;;;1.58;;
34902;SDS011;21114;44.840;0.214;2023-09-30T12:30:57;3.22;;;1.58;;
34902;SDS011;21114;44.840;0.214;2023-09-30T12:33:23;2.65;;;1.67;;
34902;SDS011;21114;44.840;0.214;2023-09-30T12:35:49;3.42;;;2.53;;
34902;SDS011;21114;44.840;0.214;2023-09-30T12:38:17;2.45;;;1.70;;
34902;SDS011;21114;44.840;0.214;2023-09-30T12:40:43;5.53;;;1.92;;
34902;SDS011;21114;44.840;0.214;2023-09-30T12:43:09;4.50;;;2.38;;
34902;SDS011;21114;44.840;0.214;2023-09-30T12:45:36;4.28;;;1.50;;
34902;SDS011;21114;44.840;0.214;2023-09-30T12:48:03;3.50;;;2.05;;
34902;SDS011;21114;44.840;0.214;2023-09-30T12:50:31;4.55;;;2.65;;
34902;SDS011;21114;44.840;0.214;2023-09-30T12:52:57;3.63;;;1.70;;
34902;SDS011;21114;44.840;0.214;2023-09-30T12:55:24;3.80;;;1.75;;
34902;SDS011;21114;44.840;0.214;2023-09-30T12:57:51;2.85;;;1.60;;
34902;SDS011;21114;44.840;0.214;2023-09-30T13:00:18;2.70;;;2.05;;
34902;SDS011;21114;44.840;0.214;2023-09-30T13:02:46;3.17;;;1.85;;
34902;SDS011;21114;44.840;0.214;2023-09-30T13:05:13;2.55;;;1.45;;
34902;SDS011;21114;44.840;0.214;2023-09-30T13:07:41;2.72;;;1.83;;
34902;SDS011;21114;44.840;0.214;2023-09-30T13:10:07;2.35;;;1.38;;
34902;SDS011;21114;44.840;0.214;2023-09-30T13:12:34;3.30;;;1.63;;
34902;SDS011;21114;44.840;0.214;2023-09-30T13:15:00;2.13;;;1.73;;
34902;SDS011;21114;44.840;0.214;2023-09-30T13:17:26;3.35;;;1.70;;
34902;SDS011;21114;44.840;0.214;2023-09-30T13:19:53;5.50;;;2.13;;
34902;SDS011;21114;44.840;0.214;2023-09-30T13:22:20;2.05;;;1.35;;
34902;SDS011;21114;44.840;0.214;2023-09-30T13:24:46;2.58;;;1.63;;
34902;SDS011;21114;44.840;0.214;2023-09-30T13:27:12;3.83;;;2.15;;
34902;SDS011;21114;44.840;0.214;2023-09-30T13:29:41;5.13;;;2.03;;
34902;SDS011;21114;44.840;0.214;2023-09-30T13:32:09;3.10;;;2.40;;
34902;SDS011;21114;44.840;0.214;2023-09-30T13:34:35;3.85;;;2.30;;
34902;SDS011;21114;44.840;0.214;2023-09-30T13:37:01;4.65;;;1.98;;
34902;SDS011;21114;44.840;0.214;2023-09-30T13:39:27;2.47;;;2.10;;
34902;SDS011;21114;44.840;0.214;2023-09-30T13:41:54;2.28;;;1.33;;
34902;SDS011;21114;44.840;0.214;2023-09-30T13:44:20;5.13;;;2.05;;
34902;SDS011;21114;44.840;0.214;2023-09-30T13:46:47;4.70;;;2.10;;
34902;SDS011;21114;44.840;0.214;2023-09-30T13:49:13;5.50;;;2.75;;
34902;SDS011;21114;44.840;0.214;2023-09-30T13:51:39;4.65;;;2.08;;
34902;SDS011;21114;44.840;0.214;2023-09-30T13:54:05;2.72;;;2.00;;
34902;SDS011;21114;44.840;0.214;2023-09-30T13:56:34;2.80;;;1.63;;
34902;SDS011;21114;44.840;0.214;2023-09-30T13:59:00;5.03;;;2.03;;
34902;SDS011;21114;44.840;0.214;2023-09-30T14:01:27;3.53;;;2.05;;
34902;SDS011;21114;44.840;0.214;2023-09-30T14:03:53;2.35;;;1.63;;
34902;SDS011;21114;44.840;0.214;2023-09-30T14:06:20;3.60;;;1.92;;
34902;SDS011;21114;44.840;0.214;2023-09-30T14:08:47;4.45;;;2.08;;
34902;SDS011;21114;44.840;0.214;2023-09-30T14:11:13;5.15;;;2.30;;
34902;SDS011;21114;44.840;0.214;2023-09-30T14:13:39;2.92;;;1.77;;
34902;SDS011;21114;44.840;0.214;2023-09-30T14:16:05;3.75;;;2.03;;
34902;SDS011;21114;44.840;0.214;2023-09-30T14:18:32;2.40;;;1.52;;
34902;SDS011;21114;44.840;0.214;2023-09-30T14:21:01;4.18;;;1.90;;
34902;SDS011;21114;44.840;0.214;2023-09-30T14:23:27;5.47;;;1.83;;
34902;SDS011;21114;44.840;0.214;2023-09-30T14:25:54;3.63;;;2.90;;
34902;SDS011;21114;44.840;0.214;2023-09-30T14:28:21;26.45;;;24.42;;
34902;SDS011;21114;44.840;0.214;2023-09-30T14:30:47;2.42;;;2.17;;
34902;SDS011;21114;44.840;0.214;2023-09-30T14:33:15;4.45;;;2.55;;
34902;SDS011;21114;44.840;0.214;2023-09-30T14:35:41;3.00;;;1.80;;
34902;SDS011;21114;44.840;0.214;2023-09-30T14:38:09;3.95;;;1.90;;
34902;SDS011;21114;44.840;0.214;2023-09-30T14:40:37;7.15;;;2.55;;
34902;SDS011;21114;44.840;0.214;2023-09-30T14:43:07;3.47;;;2.05;;
34902;SDS011;21114;44.840;0.214;2023-09-30T14:45:38;2.95;;;1.60;;
34902;SDS011;21114;44.840;0.214;2023-09-30T14:48:05;3.85;;;2.90;;
34902;SDS011;21114;44.840;0.214;2023-09-30T14:50:31;3.58;;;1.73;;
34902;SDS011;21114;44.840;0.214;2023-09-30T14:52:58;4.53;;;2.70;;
34902;SDS011;21114;44.840;0.214;2023-09-30T14:55:24;3.47;;;2.08;;
34902;SDS011;21114;44.840;0.214;2023-09-30T14:57:50;2.60;;;1.70;;
34902;SDS011;21114;44.840;0.214;2023-09-30T15:00:16;2.92;;;1.77;;